Time;durP1;ratioP1;P1;durP2;ratioP2;P2;SDS_P1;SDS_P2;PMS_P1;PMS_P2;Temp;Humidity;BMP_temperature;BMP_pressure;BME280_temperature;BME280_humidity;BME280_pressure;Samples;Min_cycle;Max_cycle;Signal;HPM_P1;HPM_P2
2023/09/18 00:00:45;;;;;;;6.32;5.53;;;21.30;94.40;;;;;;5035330;28;20462;-68
2023/09/18 00:03:10;;;;;;;6.03;5.43;;;21.30;94.60;;;;;;5035529;28;20112;-68
2023/09/18 00:05:36;;;;;;;7.82;5.15;;;21.20;94.80;;;;;;5034761;28;20108;-69
2023/09/18 00:08:02;;;;;;;6.35;5.75;;;21.20;95.00;;;;;;5035692;28;20366;-68
2023/09/18 00:10:28;;;;;;;6.93;5.32;;;21.20;95.00;;;;;;5034534;28;20108;-68
2023/09/18 00:12:54;;;;;;;6.57;5.28;;;21.20;95.20;;;;;;5035261;28;20084;-68
2023/09/18 00:15:20;;;;;;;7.63;5.63;;;21.20;95.40;;;;;;5036977;28;20083;-69
2023/09/18 00:17:46;;;;;;;6.95;5.72;;;21.10;95.30;;;;;;5035142;28;20061;-68
2023/09/18 00:20:12;;;;;;;6.82;5.95;;;21.10;95.50;;;;;;5035253;28;20075;-68
2023/09/18 00:22:37;;;;;;;6.15;5.55;;;21.10;95.70;;;;;;5034456;28;20026;-68
2023/09/18 00:25:03;;;;;;;8.38;5.63;;;21.00;96.10;;;;;;5035370;28;20115;-68
2023/09/18 00:27:29;;;;;;;8.45;5.80;;;21.00;96.10;;;;;;5034563;28;20056;-68
2023/09/18 00:29:55;;;;;;;8.35;5.78;;;21.00;96.50;;;;;;5034868;28;20109;-67
2023/09/18 00:32:21;;;;;;;7.00;5.78;;;21.00;96.40;;;;;;5034426;28;20485;-68
2023/09/18 00:34:47;;;;;;;6.45;5.80;;;21.00;96.50;;;;;;5034793;28;20095;-67
2023/09/18 00:37:12;;;;;;;7.00;6.10;;;21.00;96.50;;;;;;5034496;28;20021;-67
2023/09/18 00:39:38;;;;;;;8.18;5.85;;;21.00;96.60;;;;;;5034325;28;20104;-67
2023/09/18 00:42:04;;;;;;;6.82;5.95;;;20.90;96.90;;;;;;5034573;28;20029;-67
2023/09/18 00:44:30;;;;;;;6.28;5.68;;;20.90;97.00;;;;;;5034007;28;20362;-69
2023/09/18 00:46:56;;;;;;;7.43;5.95;;;20.90;97.20;;;;;;5037034;28;20056;-69
2023/09/18 00:49:23;;;;;;;6.40;5.80;;;20.90;97.80;;;;;;5034244;28;20037;-70
2023/09/18 00:51:50;;;;;;;7.35;6.03;;;20.90;97.80;;;;;;5034535;28;20025;-69
2023/09/18 00:54:18;;;;;;;9.10;6.72;;;20.90;98.00;;;;;;5016724;28;20382;-68
2023/09/18 00:56:46;;;;;;;6.90;6.20;;;20.90;98.30;;;;;;5033870;28;20068;-68
2023/09/18 00:59:13;;;;;;;8.95;6.25;;;20.80;98.60;;;;;;5034203;28;20041;-68
2023/09/18 01:01:40;;;;;;;11.15;7.03;;;20.80;98.60;;;;;;5033755;28;20034;-67
2023/09/18 01:04:06;;;;;;;7.72;7.00;;;20.80;98.70;;;;;;5034105;28;20116;-68
2023/09/18 01:06:31;;;;;;;7.75;7.03;;;20.80;98.80;;;;;;5033830;28;20172;-68
2023/09/18 01:08:57;;;;;;;10.05;6.93;;;20.80;98.90;;;;;;5034396;28;20029;-68
2023/09/18 01:11:36;;;;;;;10.93;6.70;;;20.80;99.20;;;;;;5034104;28;20025;-69
2023/09/18 01:14:17;;;;;;;7.65;6.88;;;20.70;99.10;;;;;;5034117;28;20030;-68
2023/09/18 01:16:59;;;;;;;;;;;20.70;99.10;;;;;;5034162;28;20029;-67
2023/09/18 01:19:51;;;;;;;9.20;6.50;;;20.70;99.30;;;;;;5033619;28;19956;-69
2023/09/18 01:22:19;;;;;;;8.80;7.05;;;20.70;99.30;;;;;;5029287;28;20038;-68
2023/09/18 01:24:49;;;;;;;8.38;7.32;;;20.70;99.30;;;;;;5033389;28;20044;-69
2023/09/18 01:27:18;;;;;;;8.13;6.73;;;20.60;99.40;;;;;;5033875;28;20025;-68
2023/09/18 01:29:47;;;;;;;9.48;7.13;;;20.60;99.70;;;;;;5033117;28;20251;-68
2023/09/18 01:32:14;;;;;;;8.77;6.97;;;20.60;99.80;;;;;;5033821;28;20080;-68
2023/09/18 01:34:49;;;;;;;8.52;6.88;;;20.60;99.90;;;;;;5033199;28;20040;-68
2023/09/18 01:37:19;;;;;;;7.50;6.60;;;20.60;99.90;;;;;;5033381;28;20104;-69
2023/09/18 01:39:47;;;;;;;8.82;7.20;;;20.60;99.90;;;;;;5033244;28;20414;-69
2023/09/18 01:42:12;;;;;;;8.00;7.15;;;20.50;99.90;;;;;;5033744;28;20034;-68
2023/09/18 01:44:38;;;;;;;8.20;7.40;;;20.50;99.90;;;;;;5032731;28;20493;-69
2023/09/18 01:47:12;;;;;;;8.13;6.28;;;20.50;99.90;;;;;;5052072;28;20051;-68
2023/09/18 01:49:39;;;;;;;8.15;7.25;;;20.50;99.90;;;;;;5052074;28;20029;-68
2023/09/18 01:52:06;;;;;;;9.02;7.10;;;20.50;99.90;;;;;;5053030;28;20025;-68
2023/09/18 01:54:33;;;;;;;9.60;7.20;;;20.40;99.90;;;;;;5052739;28;20029;-68
2023/09/18 01:56:59;;;;;;;7.90;7.07;;;20.40;99.90;;;;;;5053174;28;20056;-68
2023/09/18 01:59:25;;;;;;;8.05;6.78;;;20.40;99.90;;;;;;5035304;28;20021;-68
2023/09/18 02:01:52;;;;;;;7.95;7.07;;;20.40;99.90;;;;;;5052664;28;20028;-68
2023/09/18 02:04:18;;;;;;;11.32;7.95;;;20.30;99.90;;;;;;5053098;28;20060;-68
2023/09/18 02:06:44;;;;;;;7.57;6.60;;;20.30;99.90;;;;;;5049440;28;20500;-68
2023/09/18 02:09:10;;;;;;;8.60;7.35;;;20.30;99.90;;;;;;5052936;28;20033;-68
2023/09/18 02:11:38;;;;;;;8.60;7.45;;;20.30;99.90;;;;;;5052437;28;20040;-68
2023/09/18 02:14:05;;;;;;;9.93;7.70;;;20.20;99.90;;;;;;5052538;28;20029;-68
2023/09/18 02:16:34;;;;;;;8.23;7.43;;;20.20;99.90;;;;;;5052409;28;20033;-68
2023/09/18 02:19:00;;;;;;;8.85;7.22;;;20.20;99.90;;;;;;5052787;28;20110;-68
2023/09/18 02:21:26;;;;;;;12.18;8.60;;;20.20;99.90;;;;;;5053096;28;20033;-67
2023/09/18 02:23:53;;;;;;;9.20;8.20;;;20.10;99.90;;;;;;5052304;28;20366;-68
2023/09/18 02:26:19;;;;;;;8.40;7.57;;;20.10;99.90;;;;;;5052654;28;20036;-67
2023/09/18 02:28:45;;;;;;;8.23;7.43;;;20.10;99.90;;;;;;5052043;28;20100;-67
2023/09/18 02:31:11;;;;;;;11.73;8.25;;;20.00;99.90;;;;;;5052364;28;20052;-67
2023/09/18 02:33:37;;;;;;;8.73;7.78;;;20.10;99.90;;;;;;5052124;28;20025;-67
2023/09/18 02:36:03;;;;;;;10.00;8.00;;;20.10;99.90;;;;;;5052399;28;20112;-69
2023/09/18 02:38:30;;;;;;;11.82;8.25;;;20.00;99.90;;;;;;5052455;28;20061;-67
2023/09/18 02:40:56;;;;;;;10.00;8.52;;;20.00;99.90;;;;;;5052532;28;20116;-68
2023/09/18 02:43:22;;;;;;;9.52;8.15;;;20.00;99.90;;;;;;5034722;28;20083;-67
2023/09/18 02:45:49;;;;;;;11.38;8.43;;;20.00;99.90;;;;;;5034035;28;20072;-67
2023/09/18 02:48:15;;;;;;;9.52;8.57;;;20.00;99.90;;;;;;5052541;28;20025;-68
2023/09/18 02:50:40;;;;;;;9.73;8.73;;;20.00;99.90;;;;;;5051911;28;20036;-68
2023/09/18 02:53:08;;;;;;;9.07;8.18;;;20.00;99.90;;;;;;5049035;28;20032;-69
2023/09/18 02:55:34;;;;;;;10.73;7.65;;;19.90;99.90;;;;;;5034062;28;20033;-71
2023/09/18 02:58:00;;;;;;;10.50;8.48;;;19.90;99.90;;;;;;5052921;28;20060;-69
2023/09/18 03:00:26;;;;;;;9.27;8.30;;;19.90;99.90;;;;;;5054151;28;20374;-69
2023/09/18 03:02:51;;;;;;;13.60;8.15;;;19.90;99.90;;;;;;5056147;28;20033;-69
2023/09/18 03:05:17;;;;;;;9.25;8.27;;;19.90;99.90;;;;;;5056458;28;20359;-68
2023/09/18 03:07:44;;;;;;;10.05;8.80;;;19.90;99.90;;;;;;5055909;28;20104;-68
2023/09/18 03:10:13;;;;;;;10.80;8.80;;;19.90;99.90;;;;;;5056565;28;20021;-67
2023/09/18 03:12:39;;;;;;;10.07;9.02;;;19.80;99.90;;;;;;5055865;28;20021;-68
2023/09/18 03:15:06;;;;;;;9.90;8.75;;;19.80;99.90;;;;;;5056166;28;20033;-68
2023/09/18 03:17:32;;;;;;;9.85;8.60;;;19.80;99.90;;;;;;5056189;28;20029;-67
2023/09/18 03:19:57;;;;;;;9.65;8.65;;;19.80;99.90;;;;;;5055613;28;20071;-68
2023/09/18 03:22:23;;;;;;;9.40;8.48;;;19.80;99.90;;;;;;5055851;28;20029;-68
2023/09/18 03:24:49;;;;;;;11.32;10.05;;;19.70;99.90;;;;;;5055718;28;20036;-67
2023/09/18 03:27:15;;;;;;;12.13;9.70;;;19.70;99.90;;;;;;5038184;28;20039;-68
2023/09/18 03:29:41;;;;;;;12.82;9.95;;;19.70;99.90;;;;;;5055359;28;20448;-68
2023/09/18 03:32:06;;;;;;;12.30;9.95;;;19.70;99.90;;;;;;5055847;28;20128;-68
2023/09/18 03:34:32;;;;;;;10.52;9.43;;;19.60;99.90;;;;;;5055841;28;20037;-67
2023/09/18 03:36:57;;;;;;;10.65;9.55;;;19.60;99.90;;;;;;5055179;28;20021;-68
2023/09/18 03:39:23;;;;;;;12.30;10.65;;;19.60;99.90;;;;;;5037910;28;20060;-68
2023/09/18 03:41:49;;;;;;;10.95;9.85;;;19.50;99.90;;;;;;5055261;28;20033;-67
2023/09/18 03:44:16;;;;;;;12.45;10.65;;;19.50;99.90;;;;;;5055927;28;20470;-67
2023/09/18 03:46:41;;;;;;;12.13;9.30;;;19.50;99.90;;;;;;5049777;28;20029;-67
2023/09/18 03:49:07;;;;;;;14.07;10.82;;;19.50;99.90;;;;;;5035666;28;20481;-68
2023/09/18 03:51:33;;;;;;;11.15;9.98;;;19.50;99.90;;;;;;5035457;28;20025;-68
2023/09/18 03:53:58;;;;;;;12.38;11.07;;;19.40;99.90;;;;;;5035153;28;20409;-68
2023/09/18 03:56:24;;;;;;;12.52;11.23;;;19.40;99.90;;;;;;5035017;28;20144;-68
2023/09/18 03:58:50;;;;;;;11.85;10.65;;;19.40;99.90;;;;;;5035726;28;20390;-69
2023/09/18 04:01:16;;;;;;;13.45;10.68;;;19.30;99.90;;;;;;5035390;28;20029;-68
2023/09/18 04:03:42;;;;;;;12.50;11.23;;;19.30;99.90;;;;;;5034985;28;20030;-69
2023/09/18 04:06:07;;;;;;;12.23;10.77;;;19.30;99.90;;;;;;5035107;28;20035;-68
2023/09/18 04:08:33;;;;;;;13.68;12.02;;;19.30;99.90;;;;;;5037934;28;20021;-68
2023/09/18 04:10:59;;;;;;;13.50;11.55;;;19.30;99.90;;;;;;5034637;28;20061;-68
2023/09/18 04:13:25;;;;;;;13.85;11.07;;;19.30;99.90;;;;;;5034566;28;20037;-68
2023/09/18 04:15:56;;;;;;;12.85;11.43;;;19.20;99.90;;;;;;5034582;28;20478;-69
2023/09/18 04:18:22;;;;;;;;;;;19.20;99.90;;;;;;5035553;28;20478;-67
2023/09/18 04:20:50;;;;;;;14.07;10.93;;;19.20;99.90;;;;;;5035121;28;19913;-67
2023/09/18 04:23:23;;;;;;;14.13;10.65;;;19.20;99.90;;;;;;5035238;28;20387;-67
2023/09/18 04:25:49;;;;;;;14.77;12.00;;;19.20;99.90;;;;;;5034608;28;20029;-68
2023/09/18 04:28:17;;;;;;;14.32;10.35;;;19.20;99.90;;;;;;5034780;28;20386;-67
2023/09/18 04:30:43;;;;;;;13.82;11.88;;;19.20;99.90;;;;;;5034494;28;20041;-68
2023/09/18 04:33:09;;;;;;;15.57;12.00;;;19.20;99.90;;;;;;5034691;28;20076;-68
2023/09/18 04:35:35;;;;;;;12.52;11.32;;;19.20;99.90;;;;;;5034760;28;20038;-68
2023/09/18 04:38:00;;;;;;;15.05;10.88;;;19.20;99.90;;;;;;5034486;28;20033;-67
2023/09/18 04:40:31;;;;;;;13.07;11.07;;;19.20;99.90;;;;;;5034754;28;20324;-68
2023/09/18 04:42:57;;;;;;;17.17;12.45;;;19.20;99.90;;;;;;5034422;28;20104;-68
2023/09/18 04:45:23;;;;;;;14.50;11.02;;;19.20;99.90;;;;;;5034334;28;20033;-68
2023/09/18 04:47:48;;;;;;;13.63;12.23;;;19.20;99.90;;;;;;5034293;28;20025;-68
2023/09/18 04:50:14;;;;;;;14.05;11.57;;;19.20;99.90;;;;;;5034619;28;20026;-68
2023/09/18 04:52:43;;;;;;;12.10;10.70;;;19.20;99.90;;;;;;5033835;28;20029;-70
2023/09/18 04:55:09;;;;;;;14.18;12.50;;;19.20;99.90;;;;;;5036826;28;20035;-68
2023/09/18 04:57:35;;;;;;;13.00;11.60;;;19.20;99.90;;;;;;5034414;28;20506;-69
2023/09/18 05:00:01;;;;;;;14.10;12.32;;;19.20;99.90;;;;;;5034021;28;20126;-69
2023/09/18 05:02:26;;;;;;;14.32;12.35;;;19.20;99.90;;;;;;5034063;28;20390;-69
2023/09/18 05:04:52;;;;;;;18.05;11.70;;;19.20;99.90;;;;;;5033995;28;20033;-69
2023/09/18 05:07:18;;;;;;;15.23;11.68;;;19.20;99.90;;;;;;5034287;28;20100;-69
2023/09/18 05:09:44;;;;;;;14.23;11.88;;;19.20;99.90;;;;;;5033667;28;20465;-69
2023/09/18 05:12:13;;;;;;;15.52;12.68;;;19.20;99.90;;;;;;5034344;28;20033;-69
2023/09/18 05:14:43;;;;;;;15.45;12.30;;;19.20;99.90;;;;;;5034162;28;20079;-69
2023/09/18 05:17:15;;;;;;;14.13;11.90;;;19.20;99.90;;;;;;5034167;28;20114;-69
2023/09/18 05:19:42;;;;;;;16.20;11.27;;;19.30;99.90;;;;;;5034133;28;20021;-69
2023/09/18 05:22:11;;;;;;;15.55;11.98;;;19.30;99.90;;;;;;5034259;28;20030;-69
2023/09/18 05:24:40;;;;;;;16.67;12.18;;;19.30;99.90;;;;;;5032884;28;20029;-68
2023/09/18 05:27:07;;;;;;;14.07;11.75;;;19.30;99.90;;;;;;5033463;28;20021;-69
2023/09/18 05:29:32;;;;;;;14.63;11.85;;;19.30;99.90;;;;;;5035147;28;20032;-69
2023/09/18 05:31:58;;;;;;;14.85;11.70;;;19.30;99.90;;;;;;5034981;28;20022;-69
2023/09/18 05:34:24;;;;;;;15.32;11.35;;;19.30;99.90;;;;;;5035551;28;20026;-68
2023/09/18 05:36:49;;;;;;;14.50;11.98;;;19.30;99.90;;;;;;5033696;28;20043;-69
2023/09/18 05:39:15;;;;;;;14.20;12.32;;;19.40;99.90;;;;;;5033841;28;20047;-69
2023/09/18 05:41:41;;;;;;;14.57;11.38;;;19.40;99.90;;;;;;5033702;28;20131;-69
2023/09/18 05:44:07;;;;;;;14.18;11.07;;;19.40;99.90;;;;;;5033205;28;20026;-68
2023/09/18 05:46:36;;;;;;;12.52;11.23;;;19.40;99.90;;;;;;5033499;28;20522;-69
2023/09/18 05:49:04;;;;;;;13.85;12.38;;;19.40;99.90;;;;;;5033115;28;20073;-69
2023/09/18 05:51:31;;;;;;;13.95;11.95;;;19.40;99.90;;;;;;5033506;28;20104;-68
2023/09/18 05:53:56;;;;;;;13.88;10.88;;;19.40;99.90;;;;;;5033030;28;20032;-69
2023/09/18 05:56:23;;;;;;;18.17;11.68;;;19.40;99.90;;;;;;5040659;28;20053;-69
2023/09/18 05:58:49;;;;;;;13.57;11.10;;;19.50;99.90;;;;;;5035047;28;20430;-69
2023/09/18 06:01:15;;;;;;;13.40;11.70;;;19.50;99.90;;;;;;5052921;28;20101;-69
2023/09/18 06:03:40;;;;;;;14.40;11.95;;;19.50;99.90;;;;;;5053216;28;20108;-69
2023/09/18 06:06:06;;;;;;;13.52;11.30;;;19.60;99.90;;;;;;5052783;28;20029;-68
2023/09/18 06:08:33;;;;;;;15.90;11.18;;;19.60;99.90;;;;;;5035208;28;20025;-68
2023/09/18 06:10:59;;;;;;;15.73;12.00;;;19.70;99.90;;;;;;5052494;28;20029;-68
2023/09/18 06:13:25;;;;;;;13.77;11.02;;;19.70;99.90;;;;;;5052692;28;20027;-68
2023/09/18 06:15:54;;;;;;;15.02;11.60;;;19.70;99.90;;;;;;5052468;28;20051;-68
2023/09/18 06:18:20;;;;;;;13.52;11.32;;;19.80;99.90;;;;;;5049459;28;20036;-69
2023/09/18 06:20:47;;;;;;;14.60;11.65;;;19.80;99.90;;;;;;5035012;28;20033;-71
2023/09/18 06:23:13;;;;;;;13.02;11.70;;;19.80;99.90;;;;;;5053388;28;20028;-69
2023/09/18 06:25:39;;;;;;;18.38;12.43;;;19.90;99.90;;;;;;5053436;28;20033;-69
2023/09/18 06:28:05;;;;;;;12.45;11.13;;;19.90;99.90;;;;;;5053363;28;20079;-68
2023/09/18 06:30:33;;;;;;;14.85;12.07;;;19.90;99.90;;;;;;5053318;28;20037;-68
2023/09/18 06:32:59;;;;;;;14.32;11.07;;;20.00;99.90;;;;;;5052485;28;20025;-68
2023/09/18 06:35:24;;;;;;;12.35;11.05;;;20.00;99.90;;;;;;5052202;28;20051;-68
2023/09/18 06:37:50;;;;;;;14.45;11.68;;;20.10;99.90;;;;;;5052412;28;20486;-68
2023/09/18 06:40:16;;;;;;;12.60;11.30;;;20.20;99.90;;;;;;5052526;28;20036;-68
2023/09/18 06:42:42;;;;;;;14.13;12.02;;;20.20;99.90;;;;;;5052269;28;20473;-68
2023/09/18 06:45:08;;;;;;;13.90;11.10;;;20.30;99.90;;;;;;5052370;28;20040;-68
2023/09/18 06:47:34;;;;;;;15.88;11.45;;;20.30;99.90;;;;;;5052518;28;20029;-68
2023/09/18 06:50:00;;;;;;;12.25;10.48;;;20.40;99.90;;;;;;5051832;28;20513;-68
2023/09/18 06:52:27;;;;;;;17.00;10.68;;;20.50;99.90;;;;;;5052332;28;20049;-68
2023/09/18 06:54:53;;;;;;;9.90;8.90;;;20.70;99.90;;;;;;5051619;28;20087;-68
2023/09/18 06:57:20;;;;;;;13.00;9.32;;;20.80;99.90;;;;;;5052224;28;20053;-68
2023/09/18 06:59:48;;;;;;;10.75;9.23;;;21.10;99.90;;;;;;5051898;28;20045;-67
2023/09/18 07:02:16;;;;;;;12.20;8.98;;;21.40;99.90;;;;;;5048689;28;20040;-68
2023/09/18 07:04:45;;;;;;;10.23;8.27;;;21.70;99.90;;;;;;5052530;28;20077;-69
2023/09/18 07:07:14;;;;;;;15.73;7.97;;;22.10;99.90;;;;;;5051651;28;20477;-68
2023/09/18 07:09:41;;;;;;;9.95;7.55;;;22.60;99.90;;;;;;5052527;28;20040;-68
2023/09/18 07:12:09;;;;;;;11.65;7.00;;;23.00;99.90;;;;;;5051965;28;20108;-68
2023/09/18 07:14:35;;;;;;;8.27;6.75;;;23.50;99.10;;;;;;5052274;28;20025;-69
2023/09/18 07:17:01;;;;;;;9.38;6.72;;;24.20;96.50;;;;;;5051803;28;20041;-69
2023/09/18 07:19:27;;;;;;;7.88;6.00;;;24.90;94.00;;;;;;5052382;28;20029;-69
2023/09/18 07:21:53;;;;;;;6.97;5.65;;;25.90;92.00;;;;;;5051958;28;20029;-69
2023/09/18 07:24:20;;;;;;;9.90;5.03;;;26.90;86.50;;;;;;5052109;28;20029;-68
2023/09/18 07:26:48;;;;;;;9.55;5.10;;;27.90;80.00;;;;;;5052415;28;20481;-69
2023/09/18 07:29:17;;;;;;;5.97;4.25;;;28.80;75.00;;;;;;5051977;28;20111;-69
2023/09/18 07:31:43;;;;;;;6.15;3.78;;;29.30;70.90;;;;;;5034116;28;20179;-69
2023/09/18 07:34:09;;;;;;;8.85;3.70;;;29.60;67.80;;;;;;5051602;28;20032;-70
2023/09/18 07:36:36;;;;;;;8.90;4.22;;;30.30;66.70;;;;;;5052256;28;20029;-69
2023/09/18 07:39:02;;;;;;;6.45;4.25;;;30.60;64.50;;;;;;5051831;28;20389;-69
2023/09/18 07:41:28;;;;;;;12.18;4.00;;;30.80;62.20;;;;;;5052011;28;20359;-68
2023/09/18 07:43:53;;;;;;;7.18;4.00;;;31.10;62.00;;;;;;5051748;28;20025;-70
2023/09/18 07:46:19;;;;;;;7.53;3.72;;;31.50;61.00;;;;;;5052243;28;20035;-68
2023/09/18 07:48:44;;;;;;;4.95;3.42;;;31.70;59.40;;;;;;5055606;28;20025;-69
2023/09/18 07:51:15;;;;;;;5.80;3.55;;;32.00;59.00;;;;;;5055134;28;20112;-69
2023/09/18 07:53:42;;;;;;;5.53;3.20;;;32.30;57.20;;;;;;5037787;28;20021;-68
2023/09/18 07:56:07;;;;;;;6.07;3.50;;;32.20;57.60;;;;;;5054875;28;20437;-68
2023/09/18 07:58:33;;;;;;;16.85;4.00;;;32.40;56.00;;;;;;5038001;28;20033;-68
2023/09/18 08:00:59;;;;;;;5.78;3.55;;;32.00;56.50;;;;;;5055599;28;20039;-69
2023/09/18 08:03:28;;;;;;;8.60;3.70;;;32.20;56.20;;;;;;5023797;28;20515;-67
2023/09/18 08:05:54;;;;;;;5.25;3.30;;;32.40;56.10;;;;;;5035575;28;20063;-71
2023/09/18 08:08:21;;;;;;;6.60;3.33;;;32.60;55.20;;;;;;5035310;28;20025;-69
2023/09/18 08:10:47;;;;;;;4.43;3.30;;;32.40;55.60;;;;;;5035475;28;20025;-68
2023/09/18 08:13:13;;;;;;;8.15;3.83;;;32.40;55.30;;;;;;5035296;28;20080;-68
2023/09/18 08:15:39;;;;;;;11.45;4.00;;;31.90;55.40;;;;;;5035756;28;20037;-68
2023/09/18 08:18:05;;;;;;;10.27;3.92;;;31.50;57.10;;;;;;5017816;28;20394;-68
2023/09/18 08:20:30;;;;;;;5.97;4.20;;;31.20;57.90;;;;;;5035334;28;20030;-68
2023/09/18 08:22:56;;;;;;;5.07;3.47;;;30.60;58.70;;;;;;5035135;28;20108;-69
2023/09/18 08:25:22;;;;;;;7.03;4.40;;;30.20;60.00;;;;;;5035228;28;20383;-68
2023/09/18 08:27:48;;;;;;;6.88;4.07;;;29.60;61.10;;;;;;5034976;28;20025;-68
2023/09/18 08:30:14;;;;;;;10.65;3.67;;;29.10;62.20;;;;;;5034849;28;20025;-69
2023/09/18 08:32:41;;;;;;;9.68;4.53;;;28.60;64.60;;;;;;5035260;28;20041;-68
2023/09/18 08:35:08;;;;;;;5.57;4.03;;;28.30;65.50;;;;;;5034735;28;20382;-68
2023/09/18 08:37:34;;;;;;;7.78;4.30;;;28.00;66.60;;;;;;5034875;28;20497;-68
2023/09/18 08:40:09;;;;;;;5.13;4.35;;;27.70;67.80;;;;;;5034533;28;20029;-70
2023/09/18 08:42:37;;;;;;;4.82;4.05;;;27.30;69.40;;;;;;5035548;28;20112;-68
2023/09/18 08:45:10;;;;;;;9.82;4.95;;;27.20;70.80;;;;;;5034800;28;20076;-68
2023/09/18 08:47:39;;;;;;;10.07;4.82;;;27.00;70.70;;;;;;5035043;28;20025;-69
2023/09/18 08:50:07;;;;;;;7.32;4.75;;;27.00;72.10;;;;;;5034664;28;20068;-68
2023/09/18 08:52:35;;;;;;;6.85;4.72;;;26.90;72.00;;;;;;5035021;28;20052;-69
2023/09/18 08:55:01;;;;;;;4.70;4.05;;;26.90;72.30;;;;;;5034592;28;20084;-69
2023/09/18 08:57:28;;;;;;;6.32;3.95;;;26.90;72.50;;;;;;5034988;28;20057;-68
2023/09/18 08:59:55;;;;;;;9.27;4.30;;;27.00;72.30;;;;;;5034242;28;20087;-69
2023/09/18 09:02:21;;;;;;;9.63;4.18;;;27.10;72.00;;;;;;5033855;28;20478;-69
2023/09/18 09:04:46;;;;;;;6.07;3.92;;;27.10;71.90;;;;;;5036936;28;20028;-68
2023/09/18 09:07:12;;;;;;;4.88;3.78;;;27.10;71.40;;;;;;5016345;28;20030;-68
2023/09/18 09:09:38;;;;;;;5.50;3.78;;;27.10;70.80;;;;;;5034418;28;20037;-68
2023/09/18 09:12:04;;;;;;;5.70;3.95;;;27.10;70.60;;;;;;5033917;28;20024;-69
2023/09/18 09:14:30;;;;;;;8.15;4.10;;;27.20;71.10;;;;;;5034169;28;20467;-69
2023/09/18 09:16:59;;;;;;;6.57;4.25;;;27.40;70.10;;;;;;5033950;28;20038;-68
2023/09/18 09:19:42;;;;;;;5.03;3.65;;;27.40;70.10;;;;;;5034268;28;20079;-68
2023/09/18 09:22:09;;;;;;;5.20;3.55;;;27.40;69.20;;;;;;5033920;28;20530;-68
2023/09/18 09:24:41;;;;;;;9.35;3.67;;;27.30;69.40;;;;;;5034174;28;20382;-68
2023/09/18 09:27:08;;;;;;;6.30;3.80;;;27.40;69.70;;;;;;5033858;28;20032;-68
2023/09/18 09:29:34;;;;;;;9.35;4.03;;;27.40;69.00;;;;;;5034132;28;20138;-68
2023/09/18 09:32:16;;;;;;;10.25;4.15;;;27.40;68.70;;;;;;5034569;28;20480;-68
2023/09/18 09:34:43;;;;;;;7.45;3.65;;;27.40;68.70;;;;;;5034852;28;20027;-68
2023/09/18 09:37:10;;;;;;;8.20;3.55;;;27.50;68.30;;;;;;5034075;28;20042;-68
2023/09/18 09:39:48;;;;;;;7.20;3.78;;;27.50;68.60;;;;;;5033916;28;20028;-69
2023/09/18 09:42:24;;;;;;;7.95;4.20;;;27.50;68.30;;;;;;5016354;28;20037;-69
2023/09/18 09:45:04;;;;;;;10.18;4.07;;;27.50;68.30;;;;;;5034416;28;20029;-69
2023/09/18 09:47:36;;;;;;;10.93;3.50;;;27.40;68.40;;;;;;5033730;28;20036;-69
2023/09/18 09:50:16;;;;;;;6.88;3.78;;;27.40;68.60;;;;;;5033319;28;20593;-71
2023/09/18 09:52:48;;;;;;;15.27;3.70;;;27.30;68.80;;;;;;5033563;28;20029;-70
2023/09/18 09:55:34;;;;;;;7.65;4.10;;;27.30;69.40;;;;;;5032990;28;20446;-69
2023/09/18 09:58:04;;;;;;;7.07;3.92;;;27.20;69.50;;;;;;5033725;28;20128;-68
2023/09/18 10:00:43;;;;;;;6.38;4.38;;;27.10;69.40;;;;;;5033530;28;20021;-68
2023/09/18 10:03:10;;;;;;;10.30;4.20;;;27.10;69.60;;;;;;5033949;28;20033;-67
2023/09/18 10:05:38;;;;;;;11.70;4.18;;;27.00;69.90;;;;;;5053066;28;20450;-68
2023/09/18 10:08:08;;;;;;;8.13;4.20;;;27.00;69.70;;;;;;5052868;28;20033;-69
2023/09/18 10:10:40;;;;;;;6.43;3.92;;;26.90;69.90;;;;;;5052780;28;20028;-68
2023/09/18 10:13:18;;;;;;;10.70;3.90;;;26.90;70.10;;;;;;5049672;28;20128;-68
2023/09/18 10:15:46;;;;;;;6.15;3.97;;;26.90;70.10;;;;;;5033126;28;20039;-68
2023/09/18 10:18:26;;;;;;;9.95;4.03;;;27.00;70.40;;;;;;5032573;28;20030;-68
2023/09/18 10:21:06;;;;;;;4.95;3.67;;;27.10;70.40;;;;;;5033288;28;20029;-69
2023/09/18 10:23:58;;;;;;;10.68;4.50;;;27.30;70.00;;;;;;5033114;28;20030;-68
2023/09/18 10:26:30;;;;;;;8.18;3.50;;;27.40;69.50;;;;;;5032864;28;20352;-68
2023/09/18 10:29:02;;;;;;;6.35;3.80;;;27.40;69.30;;;;;;5033083;28;20029;-68
2023/09/18 10:31:28;;;;;;;8.57;3.70;;;27.40;68.60;;;;;;5032942;28;20038;-68
2023/09/18 10:33:56;;;;;;;6.03;3.58;;;27.40;69.30;;;;;;5032922;28;20029;-68
2023/09/18 10:36:24;;;;;;;6.28;3.60;;;27.40;68.50;;;;;;5032027;28;20037;-68
2023/09/18 10:38:51;;;;;;;8.82;3.83;;;27.30;68.50;;;;;;5032859;28;20030;-68
2023/09/18 10:41:21;;;;;;;6.93;3.83;;;27.40;68.30;;;;;;5032271;28;20071;-68
2023/09/18 10:43:49;;;;;;;10.80;3.70;;;27.30;68.70;;;;;;5032766;28;20061;-68
2023/09/18 10:46:14;;;;;;;8.55;3.55;;;27.20;68.60;;;;;;5032375;28;20033;-68
2023/09/18 10:48:46;;;;;;;8.82;3.58;;;27.10;68.60;;;;;;5033328;28;20025;-68
2023/09/18 10:51:13;;;;;;;13.15;3.65;;;27.20;69.10;;;;;;5032726;28;20037;-68
2023/09/18 10:53:40;;;;;;;9.35;3.78;;;27.30;68.50;;;;;;5032997;28;20160;-68
2023/09/18 10:56:06;;;;;;;8.27;3.65;;;27.40;68.30;;;;;;5032521;28;20117;-68
2023/09/18 10:58:38;;;;;;;10.07;3.25;;;27.60;66.90;;;;;;5035262;28;20025;-68
2023/09/18 11:01:05;;;;;;;8.40;3.30;;;27.60;66.40;;;;;;5015011;28;20155;-68
2023/09/18 11:03:33;;;;;;;8.93;3.70;;;27.70;66.60;;;;;;5032162;28;20036;-68
2023/09/18 11:06:04;;;;;;;6.05;3.50;;;27.90;66.20;;;;;;5032549;28;20073;-68
2023/09/18 11:08:35;;;;;;;8.68;3.30;;;27.90;66.20;;;;;;5032155;28;20065;-68
2023/09/18 11:11:09;;;;;;;12.50;3.50;;;28.00;66.70;;;;;;5032911;28;20476;-68
2023/09/18 11:13:38;;;;;;;12.10;3.67;;;28.10;66.30;;;;;;5032529;28;20079;-69
2023/09/18 11:16:25;;;;;;;5.60;3.35;;;28.20;65.80;;;;;;5032452;28;20095;-68
2023/09/18 11:18:52;;;;;;;7.15;3.25;;;28.30;65.60;;;;;;5032385;28;20033;-68
2023/09/18 11:21:23;;;;;;;6.32;3.97;;;28.30;65.00;;;;;;5031972;28;20022;-69
2023/09/18 11:23:57;;;;;;;;;;;28.30;65.80;;;;;;5036029;28;20083;-68
2023/09/18 11:26:23;;;;;;;6.20;3.15;;;28.30;65.40;;;;;;5036040;28;19905;-68
2023/09/18 11:28:50;;;;;;;10.38;3.60;;;28.30;64.50;;;;;;5036225;28;20026;-68
2023/09/18 11:31:16;;;;;;;7.45;3.70;;;28.30;64.20;;;;;;5035714;28;20033;-68
2023/09/18 11:33:46;;;;;;;13.07;3.75;;;28.30;63.80;;;;;;5036274;28;20386;-68
2023/09/18 11:36:30;;;;;;;8.70;3.65;;;28.20;63.80;;;;;;5035576;28;20030;-69
2023/09/18 11:39:03;;;;;;;10.40;3.15;;;28.20;63.90;;;;;;5036163;28;20120;-68
2023/09/18 11:41:36;;;;;;;5.03;3.30;;;28.20;63.60;;;;;;5035665;28;20026;-69
2023/09/18 11:44:13;;;;;;;7.47;3.78;;;28.10;64.20;;;;;;5036101;28;20030;-69
2023/09/18 11:46:40;;;;;;;5.72;3.22;;;28.10;64.30;;;;;;5036226;28;20033;-68
2023/09/18 11:49:09;;;;;;;11.35;5.25;;;28.10;64.10;;;;;;5036052;28;20072;-69
2023/09/18 11:51:36;;;;;;;9.13;3.60;;;28.00;64.50;;;;;;5036012;28;20029;-68
2023/09/18 11:54:03;;;;;;;9.00;3.38;;;28.00;64.50;;;;;;5035735;28;20405;-69
2023/09/18 11:56:29;;;;;;;7.43;3.25;;;27.90;64.50;;;;;;5035065;28;20119;-69
2023/09/18 11:58:55;;;;;;;6.03;3.40;;;27.90;64.70;;;;;;5036136;28;20028;-69
2023/09/18 12:01:24;;;;;;;7.72;3.97;;;27.90;65.20;;;;;;5035263;28;20029;-69
2023/09/18 12:04:09;;;;;;;8.27;3.58;;;27.90;65.20;;;;;;5035462;28;20041;-69
2023/09/18 12:06:42;;;;;;;8.90;3.47;;;27.90;65.20;;;;;;5039695;28;20051;-69
2023/09/18 12:09:08;;;;;;;11.48;4.03;;;27.90;65.50;;;;;;5055436;28;20028;-69
2023/09/18 12:11:35;;;;;;;7.72;3.65;;;27.80;65.60;;;;;;5054656;28;20090;-69
2023/09/18 12:14:04;;;;;;;7.43;3.90;;;27.90;65.90;;;;;;5051922;28;20021;-70
2023/09/18 12:16:30;;;;;;;9.48;3.50;;;27.90;64.90;;;;;;5054975;28;20431;-68
2023/09/18 12:18:56;;;;;;;6.10;3.50;;;27.90;64.80;;;;;;5055349;28;20124;-68
2023/09/18 12:21:22;;;;;;;8.07;4.00;;;28.00;65.30;;;;;;5054694;28;20492;-69
2023/09/18 12:23:49;;;;;;;8.80;3.67;;;28.00;66.70;;;;;;5055290;28;20029;-69
2023/09/18 12:26:16;;;;;;;7.15;4.25;;;28.00;66.70;;;;;;5054766;28;20052;-68
2023/09/18 12:28:43;;;;;;;8.65;3.92;;;28.10;66.50;;;;;;5055374;28;20098;-69
2023/09/18 12:31:13;;;;;;;6.70;3.80;;;28.00;66.80;;;;;;5055058;28;20025;-68
2023/09/18 12:33:40;;;;;;;4.85;3.83;;;28.00;67.20;;;;;;5054423;28;20498;-69
2023/09/18 12:36:08;;;;;;;6.20;3.42;;;28.00;65.00;;;;;;5037239;28;20407;-68
2023/09/18 12:38:34;;;;;;;9.63;3.75;;;27.90;64.80;;;;;;5054296;28;20060;-68
2023/09/18 12:41:08;;;;;;;13.32;3.67;;;27.90;65.10;;;;;;5054592;28;20059;-68
2023/09/18 12:43:44;;;;;;;6.25;3.60;;;27.80;65.20;;;;;;5054118;28;20567;-69